sensor_id;sensor_type;location;lat;lon;timestamp;temperature;humidity
2363;DHT22;64265;51.664;7.626;2023-07-13T00:00:50;25.30;84.40
2363;DHT22;64265;51.664;7.626;2023-07-13T00:03:18;25.30;83.70
2363;DHT22;64265;51.664;7.626;2023-07-13T00:05:45;25.30;83.70
2363;DHT22;64265;51.664;7.626;2023-07-13T00:08:14;25.30;83.80
2363;DHT22;64265;51.664;7.626;2023-07-13T00:10:41;25.30;83.80
2363;DHT22;64265;51.664;7.626;2023-07-13T00:13:08;25.30;83.80
2363;DHT22;64265;51.664;7.626;2023-07-13T00:15:35;25.30;83.80
2363;DHT22;64265;51.664;7.626;2023-07-13T00:18:03;25.30;83.90
2363;DHT22;64265;51.664;7.626;2023-07-13T00:20:31;25.30;83.90
2363;DHT22;64265;51.664;7.626;2023-07-13T00:22:58;25.30;84.00
2363;DHT22;64265;51.664;7.626;2023-07-13T00:25:25;25.30;84.00
2363;DHT22;64265;51.664;7.626;2023-07-13T00:27:53;25.30;84.00
2363;DHT22;64265;51.664;7.626;2023-07-13T00:30:20;25.30;84.00
2363;DHT22;64265;51.664;7.626;2023-07-13T00:32:47;25.30;84.00
2363;DHT22;64265;51.664;7.626;2023-07-13T00:35:14;25.30;84.00
2363;DHT22;64265;51.664;7.626;2023-07-13T00:37:43;25.30;84.10
2363;DHT22;64265;51.664;7.626;2023-07-13T00:40:11;25.30;84.20
2363;DHT22;64265;51.664;7.626;2023-07-13T00:42:38;25.30;84.20
2363;DHT22;64265;51.664;7.626;2023-07-13T00:46:07;25.30;84.20
2363;DHT22;64265;51.664;7.626;2023-07-13T00:47:56;25.20;84.20
2363;DHT22;64265;51.664;7.626;2023-07-13T00:50:23;25.30;84.20
2363;DHT22;64265;51.664;7.626;2023-07-13T00:52:54;25.30;84.30
2363;DHT22;64265;51.664;7.626;2023-07-13T00:55:23;25.20;84.20
2363;DHT22;64265;51.664;7.626;2023-07-13T00:57:50;25.30;84.30
2363;DHT22;64265;51.664;7.626;2023-07-13T01:00:20;25.20;84.30
2363;DHT22;64265;51.664;7.626;2023-07-13T01:02:48;25.30;84.30
2363;DHT22;64265;51.664;7.626;2023-07-13T01:05:17;25.20;84.30
2363;DHT22;64265;51.664;7.626;2023-07-13T01:07:45;25.30;84.40
2363;DHT22;64265;51.664;7.626;2023-07-13T01:10:14;25.30;84.40
2363;DHT22;64265;51.664;7.626;2023-07-13T01:12:41;25.30;84.50
2363;DHT22;64265;51.664;7.626;2023-07-13T01:15:33;25.30;84.40
2363;DHT22;64265;51.664;7.626;2023-07-13T01:18:03;25.20;84.30
2363;DHT22;64265;51.664;7.626;2023-07-13T01:20:30;25.20;84.40
2363;DHT22;64265;51.664;7.626;2023-07-13T01:22:58;25.20;84.50
2363;DHT22;64265;51.664;7.626;2023-07-13T01:25:25;25.20;84.50
2363;DHT22;64265;51.664;7.626;2023-07-13T01:27:51;25.20;84.50
2363;DHT22;64265;51.664;7.626;2023-07-13T01:30:18;25.20;84.50
2363;DHT22;64265;51.664;7.626;2023-07-13T01:32:45;25.20;84.60
2363;DHT22;64265;51.664;7.626;2023-07-13T01:35:12;25.20;84.60
2363;DHT22;64265;51.664;7.626;2023-07-13T01:37:39;25.20;84.60
2363;DHT22;64265;51.664;7.626;2023-07-13T01:40:08;25.20;84.60
2363;DHT22;64265;51.664;7.626;2023-07-13T01:42:35;25.20;84.60
2363;DHT22;64265;51.664;7.626;2023-07-13T01:45:02;25.20;84.60
2363;DHT22;64265;51.664;7.626;2023-07-13T01:47:29;25.20;84.70
2363;DHT22;64265;51.664;7.626;2023-07-13T01:49:56;25.20;84.70
2363;DHT22;64265;51.664;7.626;2023-07-13T01:52:23;25.20;84.70
2363;DHT22;64265;51.664;7.626;2023-07-13T01:54:50;25.20;84.80
2363;DHT22;64265;51.664;7.626;2023-07-13T01:57:18;25.20;84.70
2363;DHT22;64265;51.664;7.626;2023-07-13T01:59:45;25.20;84.80
2363;DHT22;64265;51.664;7.626;2023-07-13T02:02:11;25.20;84.80
2363;DHT22;64265;51.664;7.626;2023-07-13T02:04:38;25.20;84.80
2363;DHT22;64265;51.664;7.626;2023-07-13T02:07:05;25.20;84.80
2363;DHT22;64265;51.664;7.626;2023-07-13T02:09:32;25.20;84.80
2363;DHT22;64265;51.664;7.626;2023-07-13T02:11:58;25.10;84.80
2363;DHT22;64265;51.664;7.626;2023-07-13T02:14:26;25.20;85.00
2363;DHT22;64265;51.664;7.626;2023-07-13T02:16:53;25.20;84.90
2363;DHT22;64265;51.664;7.626;2023-07-13T02:19:20;25.10;84.80
2363;DHT22;64265;51.664;7.626;2023-07-13T02:21:47;25.10;84.90
2363;DHT22;64265;51.664;7.626;2023-07-13T02:24:14;25.10;84.90
2363;DHT22;64265;51.664;7.626;2023-07-13T02:26:43;25.20;85.00
2363;DHT22;64265;51.664;7.626;2023-07-13T02:29:10;25.20;85.00
2363;DHT22;64265;51.664;7.626;2023-07-13T02:31:38;25.20;85.00
2363;DHT22;64265;51.664;7.626;2023-07-13T02:34:05;25.10;84.90
2363;DHT22;64265;51.664;7.626;2023-07-13T02:36:32;25.10;84.90
2363;DHT22;64265;51.664;7.626;2023-07-13T02:39:00;25.10;85.00
2363;DHT22;64265;51.664;7.626;2023-07-13T02:41:28;25.10;85.00
2363;DHT22;64265;51.664;7.626;2023-07-13T02:43:55;25.10;85.00
2363;DHT22;64265;51.664;7.626;2023-07-13T02:46:28;25.10;85.00
2363;DHT22;64265;51.664;7.626;2023-07-13T02:48:56;25.10;85.00
2363;DHT22;64265;51.664;7.626;2023-07-13T02:51:23;25.10;85.00
2363;DHT22;64265;51.664;7.626;2023-07-13T02:53:49;25.10;85.10
2363;DHT22;64265;51.664;7.626;2023-07-13T02:56:16;25.10;85.90
2363;DHT22;64265;51.664;7.626;2023-07-13T02:58:43;25.10;85.10
2363;DHT22;64265;51.664;7.626;2023-07-13T03:01:10;25.10;85.10
2363;DHT22;64265;51.664;7.626;2023-07-13T03:03:38;25.10;85.10
2363;DHT22;64265;51.664;7.626;2023-07-13T03:06:06;25.10;85.10
2363;DHT22;64265;51.664;7.626;2023-07-13T03:08:33;25.10;85.20
2363;DHT22;64265;51.664;7.626;2023-07-13T03:11:00;25.10;85.10
2363;DHT22;64265;51.664;7.626;2023-07-13T03:13:27;25.10;85.20
2363;DHT22;64265;51.664;7.626;2023-07-13T03:15:54;25.10;85.30
2363;DHT22;64265;51.664;7.626;2023-07-13T03:18:21;25.10;85.30
2363;DHT22;64265;51.664;7.626;2023-07-13T03:20:50;25.10;85.30
2363;DHT22;64265;51.664;7.626;2023-07-13T03:23:19;25.10;85.30
2363;DHT22;64265;51.664;7.626;2023-07-13T03:25:46;25.10;85.30
2363;DHT22;64265;51.664;7.626;2023-07-13T03:28:13;25.10;85.30
2363;DHT22;64265;51.664;7.626;2023-07-13T03:30:40;25.10;85.30
2363;DHT22;64265;51.664;7.626;2023-07-13T03:33:07;25.10;85.40
2363;DHT22;64265;51.664;7.626;2023-07-13T03:35:34;25.10;85.30
2363;DHT22;64265;51.664;7.626;2023-07-13T03:38:01;25.10;85.30
2363;DHT22;64265;51.664;7.626;2023-07-13T03:40:29;25.10;86.10
2363;DHT22;64265;51.664;7.626;2023-07-13T03:42:56;25.10;85.40
2363;DHT22;64265;51.664;7.626;2023-07-13T03:45:22;25.00;85.30
2363;DHT22;64265;51.664;7.626;2023-07-13T03:47:49;25.10;85.40
2363;DHT22;64265;51.664;7.626;2023-07-13T03:50:16;25.10;85.40
2363;DHT22;64265;51.664;7.626;2023-07-13T03:52:42;25.00;85.40
2363;DHT22;64265;51.664;7.626;2023-07-13T03:55:09;25.00;85.30
2363;DHT22;64265;51.664;7.626;2023-07-13T03:57:38;25.10;85.40
2363;DHT22;64265;51.664;7.626;2023-07-13T04:00:06;25.10;85.50
2363;DHT22;64265;51.664;7.626;2023-07-13T04:02:33;25.00;85.40
2363;DHT22;64265;51.664;7.626;2023-07-13T04:04:59;25.00;85.40
2363;DHT22;64265;51.664;7.626;2023-07-13T04:07:27;25.10;85.50
2363;DHT22;64265;51.664;7.626;2023-07-13T04:09:53;25.00;85.40
2363;DHT22;64265;51.664;7.626;2023-07-13T04:12:20;25.10;85.50
2363;DHT22;64265;51.664;7.626;2023-07-13T04:14:48;25.00;85.40
2363;DHT22;64265;51.664;7.626;2023-07-13T04:17:15;25.00;85.40
2363;DHT22;64265;51.664;7.626;2023-07-13T04:19:41;25.00;85.50
2363;DHT22;64265;51.664;7.626;2023-07-13T04:22:08;25.00;85.50
2363;DHT22;64265;51.664;7.626;2023-07-13T04:24:35;25.00;85.50
2363;DHT22;64265;51.664;7.626;2023-07-13T04:27:03;25.00;85.50
2363;DHT22;64265;51.664;7.626;2023-07-13T04:29:29;25.00;85.50
2363;DHT22;64265;51.664;7.626;2023-07-13T04:31:57;25.00;85.60
2363;DHT22;64265;51.664;7.626;2023-07-13T04:34:23;25.00;85.60
2363;DHT22;64265;51.664;7.626;2023-07-13T04:36:50;25.00;85.60
2363;DHT22;64265;51.664;7.626;2023-07-13T04:39:17;25.00;85.60
2363;DHT22;64265;51.664;7.626;2023-07-13T04:41:44;25.00;85.60
2363;DHT22;64265;51.664;7.626;2023-07-13T04:44:11;25.00;85.60
2363;DHT22;64265;51.664;7.626;2023-07-13T04:46:37;25.00;85.60
2363;DHT22;64265;51.664;7.626;2023-07-13T04:49:05;25.00;85.60
2363;DHT22;64265;51.664;7.626;2023-07-13T04:51:32;25.00;85.60
2363;DHT22;64265;51.664;7.626;2023-07-13T04:53:59;25.00;85.60
2363;DHT22;64265;51.664;7.626;2023-07-13T04:56:25;25.00;85.60
2363;DHT22;64265;51.664;7.626;2023-07-13T04:58:52;25.00;85.70
2363;DHT22;64265;51.664;7.626;2023-07-13T05:01:19;25.00;85.70
2363;DHT22;64265;51.664;7.626;2023-07-13T05:03:45;25.00;85.70
2363;DHT22;64265;51.664;7.626;2023-07-13T05:06:13;25.00;85.70
2363;DHT22;64265;51.664;7.626;2023-07-13T05:08:40;25.00;85.70
2363;DHT22;64265;51.664;7.626;2023-07-13T05:11:07;25.00;85.70
2363;DHT22;64265;51.664;7.626;2023-07-13T05:13:34;25.00;85.60
2363;DHT22;64265;51.664;7.626;2023-07-13T05:16:02;25.00;85.60
2363;DHT22;64265;51.664;7.626;2023-07-13T05:18:30;24.90;85.30
2363;DHT22;64265;51.664;7.626;2023-07-13T05:21:00;25.00;85.40
2363;DHT22;64265;51.664;7.626;2023-07-13T05:23:29;25.00;85.30
2363;DHT22;64265;51.664;7.626;2023-07-13T05:25:56;25.00;85.30
2363;DHT22;64265;51.664;7.626;2023-07-13T05:28:22;24.90;85.20
2363;DHT22;64265;51.664;7.626;2023-07-13T05:30:50;24.90;85.10
2363;DHT22;64265;51.664;7.626;2023-07-13T05:33:17;25.00;85.20
2363;DHT22;64265;51.664;7.626;2023-07-13T05:35:44;25.00;85.20
2363;DHT22;64265;51.664;7.626;2023-07-13T05:38:10;24.90;85.00
2363;DHT22;64265;51.664;7.626;2023-07-13T05:40:39;25.00;85.10
2363;DHT22;64265;51.664;7.626;2023-07-13T05:43:05;24.90;85.10
2363;DHT22;64265;51.664;7.626;2023-07-13T05:45:32;24.90;85.00
2363;DHT22;64265;51.664;7.626;2023-07-13T05:47:59;24.90;85.00
2363;DHT22;64265;51.664;7.626;2023-07-13T05:50:26;24.90;85.00
2363;DHT22;64265;51.664;7.626;2023-07-13T05:52:53;24.90;85.00
2363;DHT22;64265;51.664;7.626;2023-07-13T05:55:19;24.90;85.10
2363;DHT22;64265;51.664;7.626;2023-07-13T05:57:48;24.90;85.10
2363;DHT22;64265;51.664;7.626;2023-07-13T06:00:15;24.90;85.20
2363;DHT22;64265;51.664;7.626;2023-07-13T06:02:42;24.90;85.20
2363;DHT22;64265;51.664;7.626;2023-07-13T06:05:09;24.90;85.20
2363;DHT22;64265;51.664;7.626;2023-07-13T06:07:36;24.90;85.30
2363;DHT22;64265;51.664;7.626;2023-07-13T06:10:03;24.90;85.30
2363;DHT22;64265;51.664;7.626;2023-07-13T06:12:29;24.90;85.30
2363;DHT22;64265;51.664;7.626;2023-07-13T06:14:57;24.90;85.40
2363;DHT22;64265;51.664;7.626;2023-07-13T06:17:24;24.90;85.50
2363;DHT22;64265;51.664;7.626;2023-07-13T06:19:51;24.90;85.60
2363;DHT22;64265;51.664;7.626;2023-07-13T06:22:17;25.00;85.70
2363;DHT22;64265;51.664;7.626;2023-07-13T06:24:44;24.90;85.60
2363;DHT22;64265;51.664;7.626;2023-07-13T06:27:11;24.90;85.60
2363;DHT22;64265;51.664;7.626;2023-07-13T06:29:37;24.90;85.70
2363;DHT22;64265;51.664;7.626;2023-07-13T06:32:07;24.90;85.70
2363;DHT22;64265;51.664;7.626;2023-07-13T06:34:34;25.00;85.80
2363;DHT22;64265;51.664;7.626;2023-07-13T06:37:01;25.00;85.90
2363;DHT22;64265;51.664;7.626;2023-07-13T06:39:31;25.00;85.90
2363;DHT22;64265;51.664;7.626;2023-07-13T06:41:57;25.00;86.40
2363;DHT22;64265;51.664;7.626;2023-07-13T06:44:25;25.00;86.00
2363;DHT22;64265;51.664;7.626;2023-07-13T06:46:51;25.00;84.60
2363;DHT22;64265;51.664;7.626;2023-07-13T06:49:19;24.90;83.50
2363;DHT22;64265;51.664;7.626;2023-07-13T06:51:46;24.90;82.80
2363;DHT22;64265;51.664;7.626;2023-07-13T06:54:13;24.90;82.40
2363;DHT22;64265;51.664;7.626;2023-07-13T06:56:40;24.80;82.10
2363;DHT22;64265;51.664;7.626;2023-07-13T06:59:06;24.80;82.00
2363;DHT22;64265;51.664;7.626;2023-07-13T07:01:33;24.80;82.30
2363;DHT22;64265;51.664;7.626;2023-07-13T07:04:00;24.80;82.50
2363;DHT22;64265;51.664;7.626;2023-07-13T07:06:28;24.80;82.70
2363;DHT22;64265;51.664;7.626;2023-07-13T07:08:55;24.80;82.90
2363;DHT22;64265;51.664;7.626;2023-07-13T07:11:23;24.90;83.20
2363;DHT22;64265;51.664;7.626;2023-07-13T07:13:51;24.90;83.40
2363;DHT22;64265;51.664;7.626;2023-07-13T07:16:19;24.90;83.60
2363;DHT22;64265;51.664;7.626;2023-07-13T07:18:45;24.80;83.70
2363;DHT22;64265;51.664;7.626;2023-07-13T07:21:13;24.90;84.00
2363;DHT22;64265;51.664;7.626;2023-07-13T07:23:42;24.80;83.90
2363;DHT22;64265;51.664;7.626;2023-07-13T07:26:09;24.80;83.90
2363;DHT22;64265;51.664;7.626;2023-07-13T07:28:37;24.80;84.00
2363;DHT22;64265;51.664;7.626;2023-07-13T07:31:04;24.80;84.00
2363;DHT22;64265;51.664;7.626;2023-07-13T07:33:32;24.90;84.10
2363;DHT22;64265;51.664;7.626;2023-07-13T07:35:59;24.80;84.00
2363;DHT22;64265;51.664;7.626;2023-07-13T07:38:26;24.80;84.10
2363;DHT22;64265;51.664;7.626;2023-07-13T07:40:54;24.80;84.10
2363;DHT22;64265;51.664;7.626;2023-07-13T07:43:21;24.80;84.10
2363;DHT22;64265;51.664;7.626;2023-07-13T07:45:48;24.90;84.20
2363;DHT22;64265;51.664;7.626;2023-07-13T07:48:14;24.80;84.20
2363;DHT22;64265;51.664;7.626;2023-07-13T07:50:41;24.80;84.20
2363;DHT22;64265;51.664;7.626;2023-07-13T07:53:08;24.80;84.20
2363;DHT22;64265;51.664;7.626;2023-07-13T07:55:36;24.90;84.30
2363;DHT22;64265;51.664;7.626;2023-07-13T07:58:05;24.80;84.30
2363;DHT22;64265;51.664;7.626;2023-07-13T08:00:32;24.90;84.40
2363;DHT22;64265;51.664;7.626;2023-07-13T08:02:59;24.80;84.30
2363;DHT22;64265;51.664;7.626;2023-07-13T08:05:25;24.80;84.30
2363;DHT22;64265;51.664;7.626;2023-07-13T08:07:52;24.80;84.40
2363;DHT22;64265;51.664;7.626;2023-07-13T08:10:19;24.80;84.40
2363;DHT22;64265;51.664;7.626;2023-07-13T08:12:46;24.90;84.80
2363;DHT22;64265;51.664;7.626;2023-07-13T08:15:15;24.80;84.70
2363;DHT22;64265;51.664;7.626;2023-07-13T08:17:42;24.90;84.90
2363;DHT22;64265;51.664;7.626;2023-07-13T08:20:10;24.90;84.90
2363;DHT22;64265;51.664;7.626;2023-07-13T08:22:36;24.80;84.80
2363;DHT22;64265;51.664;7.626;2023-07-13T08:25:04;24.80;84.80
2363;DHT22;64265;51.664;7.626;2023-07-13T08:27:30;24.90;85.20
2363;DHT22;64265;51.664;7.626;2023-07-13T08:29:57;24.90;85.00
2363;DHT22;64265;51.664;7.626;2023-07-13T08:32:25;24.90;85.10
2363;DHT22;64265;51.664;7.626;2023-07-13T08:34:52;24.90;85.00
2363;DHT22;64265;51.664;7.626;2023-07-13T08:37:19;24.90;85.10
2363;DHT22;64265;51.664;7.626;2023-07-13T08:39:46;25.00;85.40
2363;DHT22;64265;51.664;7.626;2023-07-13T08:42:32;25.00;85.40
2363;DHT22;64265;51.664;7.626;2023-07-13T08:45:07;25.00;85.40
2363;DHT22;64265;51.664;7.626;2023-07-13T08:47:41;25.00;85.00
2363;DHT22;64265;51.664;7.626;2023-07-13T08:50:13;25.00;85.10
2363;DHT22;64265;51.664;7.626;2023-07-13T08:52:42;25.00;84.30
2363;DHT22;64265;51.664;7.626;2023-07-13T08:55:13;25.10;84.40
2363;DHT22;64265;51.664;7.626;2023-07-13T08:57:42;25.10;84.40
2363;DHT22;64265;51.664;7.626;2023-07-13T09:00:12;25.10;84.40
2363;DHT22;64265;51.664;7.626;2023-07-13T09:02:46;25.10;84.40
2363;DHT22;64265;51.664;7.626;2023-07-13T09:05:14;25.20;84.40
2363;DHT22;64265;51.664;7.626;2023-07-13T09:08:04;25.20;84.40
2363;DHT22;64265;51.664;7.626;2023-07-13T09:10:34;25.20;84.30
2363;DHT22;64265;51.664;7.626;2023-07-13T09:13:19;25.20;84.30
2363;DHT22;64265;51.664;7.626;2023-07-13T09:15:48;25.30;84.30
2363;DHT22;64265;51.664;7.626;2023-07-13T09:18:21;25.20;84.20
2363;DHT22;64265;51.664;7.626;2023-07-13T09:20:54;25.30;84.30
2363;DHT22;64265;51.664;7.626;2023-07-13T09:23:23;25.30;84.30
2363;DHT22;64265;51.664;7.626;2023-07-13T09:25:53;25.30;84.30
2363;DHT22;64265;51.664;7.626;2023-07-13T09:28:24;25.30;84.30
2363;DHT22;64265;51.664;7.626;2023-07-13T09:30:56;25.30;84.30
2363;DHT22;64265;51.664;7.626;2023-07-13T09:33:26;25.30;84.20
2363;DHT22;64265;51.664;7.626;2023-07-13T09:35:54;25.30;84.20
2363;DHT22;64265;51.664;7.626;2023-07-13T09:38:24;25.30;84.20
2363;DHT22;64265;51.664;7.626;2023-07-13T09:41:11;25.30;84.20
2363;DHT22;64265;51.664;7.626;2023-07-13T09:44:00;25.30;84.10
2363;DHT22;64265;51.664;7.626;2023-07-13T09:46:27;25.30;84.10
2363;DHT22;64265;51.664;7.626;2023-07-13T09:48:55;25.30;84.20
2363;DHT22;64265;51.664;7.626;2023-07-13T09:51:22;25.30;84.20
2363;DHT22;64265;51.664;7.626;2023-07-13T09:53:49;25.30;84.20
2363;DHT22;64265;51.664;7.626;2023-07-13T09:56:20;25.30;84.20
2363;DHT22;64265;51.664;7.626;2023-07-13T09:58:47;25.30;84.00
2363;DHT22;64265;51.664;7.626;2023-07-13T10:01:14;25.30;83.90
2363;DHT22;64265;51.664;7.626;2023-07-13T10:03:52;25.30;83.90
2363;DHT22;64265;51.664;7.626;2023-07-13T10:06:22;25.30;83.70
2363;DHT22;64265;51.664;7.626;2023-07-13T10:08:50;25.30;83.40
2363;DHT22;64265;51.664;7.626;2023-07-13T10:11:19;25.30;82.70
2363;DHT22;64265;51.664;7.626;2023-07-13T10:13:51;25.30;82.10
2363;DHT22;64265;51.664;7.626;2023-07-13T10:16:18;25.30;82.10
2363;DHT22;64265;51.664;7.626;2023-07-13T10:18:47;25.30;82.00
2363;DHT22;64265;51.664;7.626;2023-07-13T10:21:17;25.30;82.30
2363;DHT22;64265;51.664;7.626;2023-07-13T10:23:49;25.20;81.90
2363;DHT22;64265;51.664;7.626;2023-07-13T10:26:21;25.30;81.70
2363;DHT22;64265;51.664;7.626;2023-07-13T10:28:53;25.20;81.60
2363;DHT22;64265;51.664;7.626;2023-07-13T10:31:22;25.20;81.40
2363;DHT22;64265;51.664;7.626;2023-07-13T10:33:49;25.30;81.50
2363;DHT22;64265;51.664;7.626;2023-07-13T10:36:23;25.30;81.40
2363;DHT22;64265;51.664;7.626;2023-07-13T10:38:55;25.30;81.80
2363;DHT22;64265;51.664;7.626;2023-07-13T10:41:26;25.30;81.40
2363;DHT22;64265;51.664;7.626;2023-07-13T10:43:54;25.30;80.90
2363;DHT22;64265;51.664;7.626;2023-07-13T10:46:24;25.40;81.30
2363;DHT22;64265;51.664;7.626;2023-07-13T10:48:55;25.40;81.20
2363;DHT22;64265;51.664;7.626;2023-07-13T10:51:23;25.40;80.90
2363;DHT22;64265;51.664;7.626;2023-07-13T10:54:14;25.40;80.80
2363;DHT22;64265;51.664;7.626;2023-07-13T10:56:42;25.40;81.40
2363;DHT22;64265;51.664;7.626;2023-07-13T10:59:12;25.50;80.70
2363;DHT22;64265;51.664;7.626;2023-07-13T11:01:48;25.50;80.50
2363;DHT22;64265;51.664;7.626;2023-07-13T11:04:19;25.50;80.70
2363;DHT22;64265;51.664;7.626;2023-07-13T11:06:48;25.50;81.30
2363;DHT22;64265;51.664;7.626;2023-07-13T11:09:36;25.50;81.80
2363;DHT22;64265;51.664;7.626;2023-07-13T11:12:07;25.60;82.40
2363;DHT22;64265;51.664;7.626;2023-07-13T11:15:03;25.50;81.70
2363;DHT22;64265;51.664;7.626;2023-07-13T11:17:47;25.60;82.10
2363;DHT22;64265;51.664;7.626;2023-07-13T11:20:32;25.60;82.90
2363;DHT22;64265;51.664;7.626;2023-07-13T11:23:28;25.60;82.70
2363;DHT22;64265;51.664;7.626;2023-07-13T11:25:55;25.50;81.90
2363;DHT22;64265;51.664;7.626;2023-07-13T11:28:24;25.60;81.70
2363;DHT22;64265;51.664;7.626;2023-07-13T11:31:03;25.60;81.50
2363;DHT22;64265;51.664;7.626;2023-07-13T11:33:57;25.60;80.70
2363;DHT22;64265;51.664;7.626;2023-07-13T11:36:35;25.60;80.40
2363;DHT22;64265;51.664;7.626;2023-07-13T11:39:09;25.60;80.90
2363;DHT22;64265;51.664;7.626;2023-07-13T11:41:44;25.70;80.90
2363;DHT22;64265;51.664;7.626;2023-07-13T11:44:13;25.70;80.70
2363;DHT22;64265;51.664;7.626;2023-07-13T11:46:46;25.60;80.30
2363;DHT22;64265;51.664;7.626;2023-07-13T11:49:16;25.60;79.90
2363;DHT22;64265;51.664;7.626;2023-07-13T11:51:44;25.60;79.80
2363;DHT22;64265;51.664;7.626;2023-07-13T11:54:22;25.60;79.50
2363;DHT22;64265;51.664;7.626;2023-07-13T11:56:49;25.60;78.80
2363;DHT22;64265;51.664;7.626;2023-07-13T11:59:17;25.60;78.90
2363;DHT22;64265;51.664;7.626;2023-07-13T12:01:48;25.60;78.50
2363;DHT22;64265;51.664;7.626;2023-07-13T12:04:22;25.60;78.20
2363;DHT22;64265;51.664;7.626;2023-07-13T12:06:55;25.70;78.40
2363;DHT22;64265;51.664;7.626;2023-07-13T12:09:26;25.70;78.20
2363;DHT22;64265;51.664;7.626;2023-07-13T12:11:53;25.70;78.30
2363;DHT22;64265;51.664;7.626;2023-07-13T12:14:20;25.70;77.90
2363;DHT22;64265;51.664;7.626;2023-07-13T12:16:50;25.70;77.50
2363;DHT22;64265;51.664;7.626;2023-07-13T12:19:20;25.70;77.30
2363;DHT22;64265;51.664;7.626;2023-07-13T12:21:47;25.70;77.90
2363;DHT22;64265;51.664;7.626;2023-07-13T12:24:15;25.70;77.00
2363;DHT22;64265;51.664;7.626;2023-07-13T12:26:42;25.70;76.50
2363;DHT22;64265;51.664;7.626;2023-07-13T12:29:16;25.70;76.50
2363;DHT22;64265;51.664;7.626;2023-07-13T12:31:45;25.70;76.90
2363;DHT22;64265;51.664;7.626;2023-07-13T12:34:14;25.70;76.80
2363;DHT22;64265;51.664;7.626;2023-07-13T12:36:50;25.80;77.00
2363;DHT22;64265;51.664;7.626;2023-07-13T12:39:21;25.80;76.90
2363;DHT22;64265;51.664;7.626;2023-07-13T12:41:49;25.80;77.20
2363;DHT22;64265;51.664;7.626;2023-07-13T12:44:18;25.80;77.40
2363;DHT22;64265;51.664;7.626;2023-07-13T12:46:58;25.80;77.20
2363;DHT22;64265;51.664;7.626;2023-07-13T12:49:32;25.90;75.80
2363;DHT22;64265;51.664;7.626;2023-07-13T12:52:03;25.80;74.80
2363;DHT22;64265;51.664;7.626;2023-07-13T12:54:30;25.80;73.80
2363;DHT22;64265;51.664;7.626;2023-07-13T12:56:59;25.80;73.30
2363;DHT22;64265;51.664;7.626;2023-07-13T12:59:31;25.80;72.60
2363;DHT22;64265;51.664;7.626;2023-07-13T13:02:02;25.80;71.70
2363;DHT22;64265;51.664;7.626;2023-07-13T13:04:29;25.80;71.60
2363;DHT22;64265;51.664;7.626;2023-07-13T13:07:08;25.80;71.60
2363;DHT22;64265;51.664;7.626;2023-07-13T13:09:36;25.80;70.40
2363;DHT22;64265;51.664;7.626;2023-07-13T13:12:03;25.70;69.60
2363;DHT22;64265;51.664;7.626;2023-07-13T13:14:31;25.70;69.60
2363;DHT22;64265;51.664;7.626;2023-07-13T13:16:57;25.70;69.80
2363;DHT22;64265;51.664;7.626;2023-07-13T13:19:27;25.80;69.80
2363;DHT22;64265;51.664;7.626;2023-07-13T13:21:56;25.70;69.70
2363;DHT22;64265;51.664;7.626;2023-07-13T13:24:26;25.70;69.50
2363;DHT22;64265;51.664;7.626;2023-07-13T13:26:53;25.70;69.80
2363;DHT22;64265;51.664;7.626;2023-07-13T13:29:23;25.80;70.50
2363;DHT22;64265;51.664;7.626;2023-07-13T13:31:50;25.80;70.40
2363;DHT22;64265;51.664;7.626;2023-07-13T13:34:18;25.80;70.40
2363;DHT22;64265;51.664;7.626;2023-07-13T13:36:46;25.80;70.80
2363;DHT22;64265;51.664;7.626;2023-07-13T13:39:19;25.80;70.80
2363;DHT22;64265;51.664;7.626;2023-07-13T13:41:50;25.90;71.40
2363;DHT22;64265;51.664;7.626;2023-07-13T13:44:17;25.90;71.30
2363;DHT22;64265;51.664;7.626;2023-07-13T13:46:46;25.90;71.10
2363;DHT22;64265;51.664;7.626;2023-07-13T13:49:15;25.90;71.60
2363;DHT22;64265;51.664;7.626;2023-07-13T13:51:43;25.90;71.70
2363;DHT22;64265;51.664;7.626;2023-07-13T13:54:12;25.90;72.60
2363;DHT22;64265;51.664;7.626;2023-07-13T13:56:40;25.90;73.10
2363;DHT22;64265;51.664;7.626;2023-07-13T13:59:08;25.90;73.90
2363;DHT22;64265;51.664;7.626;2023-07-13T14:01:35;25.90;73.90
2363;DHT22;64265;51.664;7.626;2023-07-13T14:04:03;25.90;74.20
2363;DHT22;64265;51.664;7.626;2023-07-13T14:06:31;25.90;74.40
2363;DHT22;64265;51.664;7.626;2023-07-13T14:08:58;25.90;74.40
2363;DHT22;64265;51.664;7.626;2023-07-13T14:11:25;25.90;75.00
2363;DHT22;64265;51.664;7.626;2023-07-13T14:13:55;25.90;75.70
2363;DHT22;64265;51.664;7.626;2023-07-13T14:16:27;25.80;76.30
2363;DHT22;64265;51.664;7.626;2023-07-13T14:18:58;25.80;77.00
2363;DHT22;64265;51.664;7.626;2023-07-13T14:21:26;25.80;78.00
2363;DHT22;64265;51.664;7.626;2023-07-13T14:23:53;25.80;78.60
2363;DHT22;64265;51.664;7.626;2023-07-13T14:26:22;25.80;79.30
2363;DHT22;64265;51.664;7.626;2023-07-13T14:28:50;25.80;79.10
2363;DHT22;64265;51.664;7.626;2023-07-13T14:31:18;25.80;78.90
2363;DHT22;64265;51.664;7.626;2023-07-13T14:33:47;25.80;78.90
2363;DHT22;64265;51.664;7.626;2023-07-13T14:36:26;25.70;78.80
2363;DHT22;64265;51.664;7.626;2023-07-13T14:38:55;25.80;78.70
2363;DHT22;64265;51.664;7.626;2023-07-13T14:41:21;25.80;78.80
2363;DHT22;64265;51.664;7.626;2023-07-13T14:43:48;25.80;78.90
2363;DHT22;64265;51.664;7.626;2023-07-13T14:46:30;25.80;79.20
2363;DHT22;64265;51.664;7.626;2023-07-13T14:49:02;25.80;78.90
2363;DHT22;64265;51.664;7.626;2023-07-13T14:51:29;25.70;79.10
2363;DHT22;64265;51.664;7.626;2023-07-13T14:53:57;25.70;79.20
2363;DHT22;64265;51.664;7.626;2023-07-13T14:56:25;25.70;79.50
2363;DHT22;64265;51.664;7.626;2023-07-13T14:58:51;25.70;79.60
2363;DHT22;64265;51.664;7.626;2023-07-13T15:01:19;25.80;88.30
2363;DHT22;64265;51.664;7.626;2023-07-13T15:03:49;25.70;83.10
2363;DHT22;64265;51.664;7.626;2023-07-13T15:06:18;25.70;81.20
2363;DHT22;64265;51.664;7.626;2023-07-13T15:08:46;25.80;80.30
2363;DHT22;64265;51.664;7.626;2023-07-13T15:11:13;25.80;80.40
2363;DHT22;64265;51.664;7.626;2023-07-13T15:13:41;25.80;80.60
2363;DHT22;64265;51.664;7.626;2023-07-13T15:16:18;25.70;98.90
2363;DHT22;64265;51.664;7.626;2023-07-13T15:18:46;25.90;98.30
2363;DHT22;64265;51.664;7.626;2023-07-13T15:21:19;25.80;97.60
2363;DHT22;64265;51.664;7.626;2023-07-13T15:23:46;25.80;97.30
2363;DHT22;64265;51.664;7.626;2023-07-13T15:26:13;25.80;97.20
2363;DHT22;64265;51.664;7.626;2023-07-13T15:28:41;25.80;96.90
2363;DHT22;64265;51.664;7.626;2023-07-13T15:31:19;25.70;97.60
2363;DHT22;64265;51.664;7.626;2023-07-13T15:33:46;25.80;97.30
2363;DHT22;64265;51.664;7.626;2023-07-13T15:36:14;25.80;96.50
2363;DHT22;64265;51.664;7.626;2023-07-13T15:38:44;25.90;96.20
2363;DHT22;64265;51.664;7.626;2023-07-13T15:41:17;25.80;96.10
2363;DHT22;64265;51.664;7.626;2023-07-13T15:43:46;25.80;96.00
2363;DHT22;64265;51.664;7.626;2023-07-13T15:46:13;25.70;95.60
2363;DHT22;64265;51.664;7.626;2023-07-13T15:48:40;25.80;95.00
2363;DHT22;64265;51.664;7.626;2023-07-13T15:51:12;25.90;95.10
2363;DHT22;64265;51.664;7.626;2023-07-13T15:53:40;25.80;94.80
2363;DHT22;64265;51.664;7.626;2023-07-13T15:56:18;25.80;94.60